Time;durP1;ratioP1;P1;durP2;ratioP2;P2;SDS_P1;SDS_P2;PMS_P1;PMS_P2;Temp;Humidity;BMP_temperature;BMP_pressure;BME280_temperature;BME280_humidity;BME280_pressure;Samples;Min_cycle;Max_cycle;Signal;HPM_P1;HPM_P2
2023/10/02 00:00:42;;;;;;;10.40;3.60;;;;;;;14.93;53.14;101711.52;107587;1251;108535;-63
2023/10/02 00:03:33;;;;;;;12.70;4.00;;;;;;;14.94;53.25;101708.34;107592;1251;97707;-63
2023/10/02 00:06:01;;;;;;;18.20;4.50;;;;;;;14.95;53.11;101711.34;107645;1251;97832;-63
2023/10/02 00:11:41;;;;;;;12.50;3.60;;;;;;;14.95;53.43;101708.76;107592;1254;108694;-63
2023/10/02 00:14:18;;;;;;;11.20;3.90;;;;;;;14.93;53.53;101712.95;107522;1253;107274;-62
2023/10/02 00:17:03;;;;;;;11.30;3.50;;;;;;;14.90;53.51;101716.83;107593;1254;97746;-63
2023/10/02 00:19:37;;;;;;;11.20;4.20;;;;;;;14.87;53.56;101716.21;107606;1251;98354;-63
2023/10/02 00:22:41;;;;;;;18.70;4.60;;;;;;;14.83;53.43;101717.06;107570;1254;111952;-62
2023/10/02 00:25:16;;;;;;;13.90;3.90;;;;;;;14.79;53.53;101718.53;107587;1254;108836;-62
2023/10/02 00:27:51;;;;;;;16.10;4.40;;;;;;;14.76;53.60;101721.55;107606;1251;108065;-63
2023/10/02 00:30:35;;;;;;;18.10;4.70;;;;;;;14.72;54.07;101722.63;107628;1251;97837;-63
2023/10/02 00:33:11;;;;;;;15.80;4.60;;;;;;;14.66;54.16;101721.89;107642;1253;98361;-62
2023/10/02 00:35:50;;;;;;;15.50;4.60;;;;;;;14.63;54.52;101721.08;107592;1254;111094;-63
2023/10/02 00:38:19;;;;;;;15.20;3.90;;;;;;;14.59;54.48;101723.03;107635;1254;110130;-63
2023/10/02 00:40:48;;;;;;;10.80;4.50;;;;;;;14.56;54.56;101719.98;107478;1253;108403;-63
2023/10/02 00:43:36;;;;;;;16.90;4.20;;;;;;;14.53;54.49;101720.83;107540;1253;97841;-63
2023/10/02 00:46:05;;;;;;;18.00;3.80;;;;;;;14.52;54.37;101722.25;107603;1256;97800;-64
2023/10/02 00:48:39;;;;;;;13.50;4.70;;;;;;;14.52;54.46;101723.84;107474;1258;112234;-63
2023/10/02 00:51:11;;;;;;;11.30;3.70;;;;;;;14.52;54.38;101721.16;107617;1254;110880;-66
2023/10/02 00:53:48;;;;;;;14.50;4.00;;;;;;;14.52;54.47;101722.20;107553;1253;106424;-63
2023/10/02 00:56:28;;;;;;;13.10;4.70;;;;;;;14.53;54.61;101725.04;107622;1253;97828;-63
2023/10/02 00:59:01;;;;;;;18.50;4.60;;;;;;;14.51;54.67;101722.98;107591;1253;98386;-63
2023/10/02 01:01:34;;;;;;;17.00;5.00;;;;;;;14.49;54.54;101728.05;107578;1254;113097;-62
2023/10/02 01:04:08;;;;;;;12.50;3.90;;;;;;;14.49;54.63;101729.90;107655;1253;109071;-63
2023/10/02 01:06:54;;;;;;;10.50;4.00;;;;;;;14.46;54.77;101730.67;107617;1253;108581;-63
2023/10/02 01:09:27;;;;;;;19.10;4.40;;;;;;;14.44;54.67;101729.81;107562;1253;97812;-63
2023/10/02 01:11:59;;;;;;;11.00;4.00;;;;;;;14.42;54.94;101733.22;107640;1254;97822;-63
2023/10/02 01:14:50;;;;;;;14.20;4.10;;;;;;;14.39;55.08;101735.25;107612;1254;110687;-63
2023/10/02 01:17:21;;;;;;;15.20;4.30;;;;;;;14.37;55.26;101738.34;107596;1252;109144;-63
2023/10/02 01:19:53;;;;;;;22.00;4.50;;;;;;;14.35;55.64;101738.03;107627;1255;107226;-64
2023/10/02 01:22:28;;;;;;;19.30;4.50;;;;;;;14.24;56.70;101736.94;107593;1253;97845;-63
2023/10/02 01:25:23;;;;;;;20.70;4.20;;;;;;;14.10;56.93;101738.52;107609;1253;97739;-63
2023/10/02 01:27:50;;;;;;;17.00;3.90;;;;;;;13.92;58.08;101741.45;107617;1254;111969;-64
2023/10/02 01:30:23;;;;;;;23.30;4.60;;;;;;;13.77;58.46;101745.55;107653;1254;110004;-63
2023/10/02 01:33:06;;;;;;;22.30;4.90;;;;;;;13.66;59.19;101746.86;107510;1253;106161;-63
2023/10/02 01:35:36;;;;;;;14.50;4.30;;;;;;;13.55;59.69;101747.08;107561;1251;97838;-62
2023/10/02 01:38:12;;;;;;;16.80;3.90;;;;;;;13.54;59.07;101746.80;107610;1254;97830;-64
2023/10/02 01:40:54;;;;;;;17.10;4.40;;;;;;;13.59;58.91;101746.76;107639;1251;111304;-62
2023/10/02 01:43:27;;;;;;;11.00;4.30;;;;;;;13.66;58.94;101744.72;107557;1251;109320;-63
2023/10/02 01:46:00;;;;;;;18.90;4.30;;;;;;;13.75;58.95;101745.37;107597;1251;108308;-63
2023/10/02 01:48:40;;;;;;;23.60;3.80;;;;;;;13.83;58.95;101745.80;107555;1251;97816;-63
2023/10/02 01:51:15;;;;;;;14.50;4.00;;;;;;;13.91;58.89;101738.63;107584;1251;97709;-63
2023/10/02 01:53:48;;;;;;;16.70;4.40;;;;;;;13.98;59.10;101742.54;107606;1251;110584;-63
2023/10/02 01:56:19;;;;;;;14.40;4.30;;;;;;;14.01;59.15;101737.69;107553;1251;108802;-63
2023/10/02 01:58:49;;;;;;;14.60;4.20;;;;;;;14.03;59.09;101741.70;107609;1254;108509;-63
2023/10/02 02:01:20;;;;;;;19.00;5.50;;;;;;;14.06;59.06;101741.41;107428;1254;97931;-63
2023/10/02 02:03:51;;;;;;;11.50;3.90;;;;;;;14.11;59.15;101744.79;107606;1251;98549;-63
2023/10/02 02:06:22;;;;;;;19.90;4.20;;;;;;;14.11;58.95;101744.05;107618;1251;112189;-63
2023/10/02 02:08:58;;;;;;;13.00;4.10;;;;;;;14.14;58.82;101745.79;107602;1251;110170;-62
2023/10/02 02:11:34;;;;;;;13.80;4.00;;;;;;;14.19;58.54;101752.06;107569;1251;108282;-62
2023/10/02 02:14:04;;;;;;;15.80;4.10;;;;;;;14.22;58.46;101750.64;107580;1256;97889;-62
2023/10/02 02:16:35;;;;;;;14.30;4.30;;;;;;;14.25;58.29;101755.50;107563;1253;98363;-63
2023/10/02 02:19:07;;;;;;;15.70;4.40;;;;;;;14.25;58.39;101750.97;107525;1251;111015;-63
2023/10/02 02:21:38;;;;;;;13.80;4.30;;;;;;;14.21;58.51;101753.06;107687;1254;108535;-63
2023/10/02 02:24:07;;;;;;;13.30;4.20;;;;;;;14.19;58.32;101759.03;107577;1251;108311;-62
2023/10/02 02:26:39;;;;;;;19.20;4.80;;;;;;;14.19;58.50;101758.33;107584;1252;97890;-62
2023/10/02 02:29:23;;;;;;;12.70;4.20;;;;;;;14.16;58.57;101764.52;107590;1253;99003;-63
2023/10/02 02:31:53;;;;;;;12.10;4.30;;;;;;;14.14;58.36;101763.48;107598;1254;112123;-63
2023/10/02 02:34:25;;;;;;;18.30;4.20;;;;;;;14.14;58.47;101761.71;107605;1251;110306;-63
2023/10/02 02:36:54;;;;;;;18.50;4.40;;;;;;;14.13;58.44;101757.84;107616;1251;107196;-63
2023/10/02 02:39:22;;;;;;;14.00;4.10;;;;;;;14.11;58.36;101753.80;107582;1251;97838;-63
2023/10/02 02:44:48;;;;;;;14.50;4.00;;;;;;;14.09;58.35;101753.60;107465;1253;111855;-63
2023/10/02 02:47:23;;;;;;;16.60;5.50;;;;;;;14.07;58.40;101756.45;107553;1251;109234;-63
2023/10/02 02:49:58;;;;;;;17.50;4.80;;;;;;;14.03;58.34;101764.06;107569;1253;108276;-63
2023/10/02 02:52:32;;;;;;;19.30;4.90;;;;;;;13.97;59.32;101765.48;107594;1251;97821;-63
2023/10/02 02:55:12;;;;;;;17.90;5.00;;;;;;;13.88;59.01;101767.30;107622;1251;98373;-63
2023/10/02 02:57:45;;;;;;;9.40;3.70;;;;;;;13.86;59.01;101768.80;107604;1253;112130;-63
2023/10/02 03:00:30;;;;;;;12.70;3.40;;;;;;;13.84;59.01;101765.86;107580;1251;108285;-64
2023/10/02 03:03:00;;;;;;;15.00;5.10;;;;;;;13.82;58.99;101765.70;107561;1254;107825;-63
2023/10/02 03:05:40;;;;;;;24.00;4.70;;;;;;;13.81;59.03;101764.56;107580;1254;98139;-64
2023/10/02 03:08:11;;;;;;;11.30;4.40;;;;;;;13.78;59.23;101765.67;107586;1253;98453;-62
2023/10/02 03:10:40;;;;;;;18.60;4.40;;;;;;;13.77;59.24;101766.47;107579;1256;111968;-63
2023/10/02 03:13:15;;;;;;;19.10;4.60;;;;;;;13.77;59.43;101767.36;107586;1254;109012;-62
2023/10/02 03:15:48;;;;;;;20.00;5.70;;;;;;;13.78;59.42;101768.34;107585;1251;109972;-63
2023/10/02 03:18:30;;;;;;;18.70;5.40;;;;;;;13.79;59.63;101769.22;107626;1254;97930;-64
2023/10/02 03:23:39;;;;;;;14.10;4.10;;;;;;;13.76;60.20;101770.71;107552;1251;112097;-63
2023/10/02 03:29:00;;;;;;;10.20;4.10;;;;;;;13.76;60.36;101770.14;107517;1253;107327;-64
2023/10/02 03:31:37;;;;;;;14.50;4.20;;;;;;;13.74;60.26;101771.08;107479;1253;98430;-62
2023/10/02 03:37:03;;;;;;;17.40;4.40;;;;;;;13.75;60.56;101768.46;107596;1251;111977;-64
2023/10/02 03:42:23;;;;;;;22.60;4.90;;;;;;;13.78;60.80;101770.70;107574;1251;107177;-62
2023/10/02 03:44:59;;;;;;;11.60;3.90;;;;;;;13.78;61.01;101773.77;107536;1251;98060;-63
2023/10/02 03:47:30;;;;;;;15.10;4.00;;;;;;;13.77;60.95;101775.47;107554;1254;99009;-63
2023/10/02 03:50:00;;;;;;;19.70;5.30;;;;;;;13.76;60.86;101774.83;107600;1253;112181;-63
2023/10/02 03:52:32;;;;;;;21.90;6.40;;;;;;;13.76;60.75;101772.36;107604;1254;108724;-63
2023/10/02 03:55:17;;;;;;;19.30;4.30;;;;;;;13.76;61.25;101773.36;107585;1254;107565;-63
2023/10/02 03:57:47;;;;;;;11.80;4.40;;;;;;;13.78;61.16;101780.27;107610;1251;97813;-64
2023/10/02 04:00:19;;;;;;;15.10;4.00;;;;;;;13.78;61.46;101779.58;107590;1251;98385;-63
2023/10/02 04:02:50;;;;;;;17.60;5.10;;;;;;;13.74;61.48;101776.26;107554;1251;112339;-63
2023/10/02 04:05:42;;;;;;;16.50;4.70;;;;;;;13.72;61.63;101779.51;107561;1254;109064;-63
2023/10/02 04:08:37;;;;;;;25.50;9.90;;;;;;;13.72;61.50;101780.25;107559;1254;107786;-64
2023/10/02 04:11:09;;;;;;;17.50;5.80;;;;;;;13.73;61.45;101781.05;107627;1253;97847;-62
2023/10/02 04:13:39;;;;;;;16.70;4.50;;;;;;;13.74;61.19;101781.49;107622;1251;98460;-62
2023/10/02 04:19:02;;;;;;;17.20;4.50;;;;;;;13.73;61.52;101788.97;107524;1252;109728;-63
2023/10/02 04:21:33;;;;;;;15.10;4.00;;;;;;;13.66;61.70;101790.13;107536;1252;108644;-62
2023/10/02 04:24:09;;;;;;;16.80;3.60;;;;;;;13.67;62.01;101792.08;107544;1254;97839;-63
2023/10/02 04:26:41;;;;;;;16.70;4.30;;;;;;;13.70;62.27;101796.30;107570;1252;97829;-63
2023/10/02 04:29:14;;;;;;;14.20;4.20;;;;;;;13.73;62.35;101800.19;107610;1254;112152;-63
2023/10/02 04:31:44;;;;;;;20.70;4.90;;;;;;;13.75;62.39;101804.66;107543;1254;109835;-63
2023/10/02 04:36:51;;;;;;;11.90;4.00;;;;;;;13.77;62.87;101801.27;107512;1256;97802;-62
2023/10/02 04:42:11;;;;;;;20.80;5.80;;;;;;;13.86;62.89;101803.56;107578;1255;111992;-62
2023/10/02 04:44:45;;;;;;;17.10;4.20;;;;;;;13.90;62.95;101804.52;107582;1256;108163;-63
2023/10/02 04:47:17;;;;;;;21.10;4.40;;;;;;;13.93;62.96;101810.33;107543;1254;108610;-63
2023/10/02 04:52:56;;;;;;;18.60;4.50;;;;;;;14.00;62.91;101810.46;107570;1253;98446;-62
2023/10/02 04:55:28;;;;;;;14.30;4.10;;;;;;;14.04;62.88;101810.53;107636;1254;112713;-62
2023/10/02 04:58:08;;;;;;;18.40;4.30;;;;;;;14.03;62.66;101821.11;107630;1253;109046;-61
2023/10/02 05:01:00;;;;;;;15.00;4.70;;;;;;;14.03;62.59;101822.69;107596;1254;107822;-62
2023/10/02 05:03:36;;;;;;;14.00;3.50;;;;;;;14.03;62.88;101825.03;107526;1254;98003;-62
2023/10/02 05:06:16;;;;;;;24.00;4.60;;;;;;;14.02;62.83;101824.03;107593;1252;97724;-62
2023/10/02 05:11:26;;;;;;;13.50;4.00;;;;;;;13.99;62.99;101830.80;107485;1253;109651;-62
2023/10/02 05:16:34;;;;;;;11.70;3.60;;;;;;;14.00;63.25;101838.30;107508;1256;97840;-63
2023/10/02 05:19:05;;;;;;;16.10;3.50;;;;;;;13.97;63.31;101838.50;107565;1251;98481;-63
2023/10/02 05:21:50;;;;;;;14.50;3.90;;;;;;;13.97;63.65;101842.19;107565;1254;110451;-62
2023/10/02 05:24:19;;;;;;;20.30;4.30;;;;;;;13.98;63.69;101849.46;107588;1254;109656;-63
2023/10/02 05:26:47;;;;;;;16.10;4.40;;;;;;;13.99;63.67;101847.55;107512;1253;108217;-63
2023/10/02 05:29:17;;;;;;;13.90;4.30;;;;;;;14.01;64.20;101851.49;107570;1253;97800;-62
2023/10/02 05:31:48;;;;;;;16.40;4.50;;;;;;;14.04;64.05;101857.06;107506;1251;97854;-62
2023/10/02 05:34:27;;;;;;;18.40;4.40;;;;;;;14.05;64.10;101857.29;107540;1254;112108;-63
2023/10/02 05:37:23;;;;;;;16.90;3.80;;;;;;;14.07;64.05;101860.16;107560;1254;109242;-62
2023/10/02 05:39:51;;;;;;;16.40;4.40;;;;;;;14.12;64.26;101863.92;107434;1253;107593;-62
2023/10/02 05:42:20;;;;;;;18.90;4.00;;;;;;;14.16;64.47;101864.73;107397;1253;97857;-63
2023/10/02 05:44:49;;;;;;;16.10;4.00;;;;;;;14.17;64.16;101866.91;107491;1254;97720;-62
2023/10/02 05:47:18;;;;;;;16.80;4.30;;;;;;;14.22;64.03;101869.60;107477;1255;111598;-63
2023/10/02 05:49:47;;;;;;;12.10;3.90;;;;;;;14.27;64.00;101873.14;107582;1254;108450;-63
2023/10/02 05:52:19;;;;;;;12.60;4.40;;;;;;;14.33;63.97;101876.96;107483;1255;108609;-63
2023/10/02 05:54:53;;;;;;;13.50;4.10;;;;;;;14.36;63.63;101874.99;107533;1253;97854;-63
2023/10/02 05:57:23;;;;;;;15.70;4.50;;;;;;;14.40;63.44;101878.14;107459;1255;97750;-63
2023/10/02 05:59:58;;;;;;;12.90;3.80;;;;;;;14.44;63.59;101882.52;107564;1254;110787;-62
2023/10/02 06:02:27;;;;;;;15.20;4.10;;;;;;;14.48;63.37;101885.23;107559;1254;109970;-63
2023/10/02 06:05:07;;;;;;;16.50;4.40;;;;;;;14.52;63.36;101887.74;107532;1254;106805;-63
2023/10/02 06:07:51;;;;;;;23.20;4.30;;;;;;;14.54;63.41;101887.70;107527;1253;97908;-63
2023/10/02 06:10:25;;;;;;;14.50;3.60;;;;;;;14.57;63.01;101887.33;107534;1254;97848;-64
2023/10/02 06:13:05;;;;;;;17.50;4.60;;;;;;;14.61;63.04;101890.20;107585;1251;112840;-63
2023/10/02 06:15:48;;;;;;;16.80;4.80;;;;;;;14.66;62.83;101887.80;107501;1253;109147;-64
2023/10/02 06:18:27;;;;;;;20.00;4.30;;;;;;;14.70;62.83;101887.80;107579;1254;108311;-63
2023/10/02 06:21:00;;;;;;;15.60;5.00;;;;;;;14.74;62.55;101889.14;107552;1255;97914;-63
2023/10/02 06:23:38;;;;;;;13.20;3.80;;;;;;;14.78;62.58;101887.98;107539;1253;97831;-63
2023/10/02 06:26:10;;;;;;;15.00;4.50;;;;;;;14.82;62.44;101889.11;107515;1253;112123;-63
2023/10/02 06:28:41;;;;;;;26.20;4.50;;;;;;;14.86;62.45;101893.10;107583;1255;108835;-62
2023/10/02 06:31:10;;;;;;;13.70;3.70;;;;;;;14.89;62.23;101889.44;107533;1254;107794;-63
2023/10/02 06:33:38;;;;;;;17.70;4.80;;;;;;;14.93;62.13;101894.65;107553;1251;97908;-63
2023/10/02 06:36:07;;;;;;;16.10;4.50;;;;;;;14.94;62.01;101889.46;107638;1251;97746;-63
2023/10/02 06:38:38;;;;;;;15.10;4.50;;;;;;;15.02;62.02;101892.03;107531;1254;109734;-63
2023/10/02 06:41:12;;;;;;;18.50;3.60;;;;;;;15.13;61.80;101893.94;107505;1254;109772;-62
2023/10/02 06:43:41;;;;;;;17.00;4.10;;;;;;;15.21;61.41;101898.27;107464;1256;108689;-63
2023/10/02 06:46:15;;;;;;;15.40;4.00;;;;;;;15.24;61.35;101900.92;107512;1253;97809;-63
2023/10/02 06:48:46;;;;;;;16.00;3.90;;;;;;;15.30;61.35;101904.16;107546;1253;97682;-64
2023/10/02 06:51:16;;;;;;;25.00;4.50;;;;;;;15.37;61.12;101904.85;107591;1254;112357;-63
2023/10/02 06:53:44;;;;;;;17.60;4.00;;;;;;;15.43;60.96;101909.52;107584;1253;109880;-64
2023/10/02 06:56:13;;;;;;;16.30;4.10;;;;;;;15.47;60.78;101910.24;107550;1256;108557;-63
2023/10/02 06:58:56;;;;;;;25.20;3.90;;;;;;;15.52;60.67;101912.08;107582;1253;97835;-62
2023/10/02 07:01:28;;;;;;;13.50;4.00;;;;;;;15.58;60.55;101913.02;107556;1253;97918;-63
2023/10/02 07:04:08;;;;;;;16.20;4.30;;;;;;;15.66;60.50;101911.69;107569;1254;110786;-62
2023/10/02 07:06:39;;;;;;;15.60;4.20;;;;;;;15.77;60.43;101918.55;107585;1254;110423;-63
2023/10/02 07:09:10;;;;;;;11.00;3.90;;;;;;;15.84;60.01;101921.85;107601;1256;108578;-63
2023/10/02 07:11:45;;;;;;;17.20;4.30;;;;;;;15.89;59.80;101923.02;107487;1252;98388;-64
2023/10/02 07:14:14;;;;;;;12.10;4.10;;;;;;;15.95;59.55;101919.55;107599;1255;97916;-63
2023/10/02 07:16:47;;;;;;;14.40;3.70;;;;;;;16.04;59.49;101922.36;107516;1254;111826;-62
2023/10/02 07:19:27;;;;;;;13.30;4.00;;;;;;;16.07;59.32;101926.60;107684;1251;109297;-63
2023/10/02 07:21:55;;;;;;;17.40;4.40;;;;;;;16.13;59.20;101923.88;107500;1254;107792;-62
2023/10/02 07:24:28;;;;;;;16.70;4.20;;;;;;;16.24;58.89;101928.23;107515;1254;97827;-63
2023/10/02 07:26:59;;;;;;;;;;;;;;;16.27;58.26;101926.72;107558;1254;97716;-62
2023/10/02 07:29:37;;;;;;;16.40;3.70;;;;;;;16.31;58.50;101930.20;107608;1254;112329;-62
2023/10/02 07:32:07;;;;;;;17.30;4.20;;;;;;;16.46;58.09;101924.56;107525;1254;109098;-62
2023/10/02 07:34:38;;;;;;;17.90;4.00;;;;;;;16.59;57.58;101927.53;107564;1253;107414;-62
2023/10/02 07:37:06;;;;;;;22.10;4.60;;;;;;;16.69;57.49;101928.31;107542;1256;97847;-63
2023/10/02 07:39:35;;;;;;;11.20;3.50;;;;;;;16.80;57.06;101928.54;107544;1254;97835;-63
2023/10/02 07:42:04;;;;;;;15.40;4.90;;;;;;;16.89;56.76;101929.30;107511;1253;112366;-64
2023/10/02 07:44:38;;;;;;;17.30;4.70;;;;;;;17.01;56.53;101926.77;107522;1254;109670;-63
2023/10/02 07:47:19;;;;;;;20.70;4.30;;;;;;;17.15;55.79;101924.83;107514;1253;107446;-62
2023/10/02 07:49:55;;;;;;;11.60;3.60;;;;;;;17.26;55.37;101925.77;107536;1255;97950;-62
2023/10/02 07:52:38;;;;;;;24.90;4.30;;;;;;;17.38;55.27;101931.08;107552;1254;97870;-62
2023/10/02 07:55:10;;;;;;;16.60;3.70;;;;;;;17.58;55.18;101933.33;107566;1254;111592;-63
2023/10/02 07:57:39;;;;;;;14.60;3.30;;;;;;;17.80;54.26;101930.42;107565;1254;109283;-63
2023/10/02 08:03:02;;;;;;;14.60;3.40;;;;;;;17.97;53.25;101937.65;107565;1255;97951;-64
2023/10/02 08:05:34;;;;;;;13.60;4.00;;;;;;;18.09;52.46;101935.71;107543;1252;97809;-65
2023/10/02 08:08:08;;;;;;;15.90;3.40;;;;;;;18.17;52.72;101944.29;107657;1254;111965;-68
2023/10/02 08:10:49;;;;;;;17.00;3.60;;;;;;;18.40;52.45;101941.87;107627;1253;109218;-67
2023/10/02 08:13:29;;;;;;;12.20;3.30;;;;;;;18.62;51.00;101942.36;107532;1254;108394;-65
2023/10/02 08:16:07;;;;;;;15.70;3.20;;;;;;;18.72;50.89;101943.50;107565;1254;97711;-63
2023/10/02 08:18:56;;;;;;;12.90;4.20;;;;;;;18.87;50.46;101943.44;107535;1253;97825;-65
2023/10/02 08:21:36;;;;;;;12.20;3.40;;;;;;;18.96;50.12;101943.59;107550;1254;111496;-63
2023/10/02 08:24:11;;;;;;;14.30;3.00;;;;;;;19.05;49.64;101948.77;107468;1254;109597;-64
2023/10/02 08:26:43;;;;;;;10.10;2.90;;;;;;;19.20;49.30;101946.52;107450;1254;108140;-64
2023/10/02 08:29:18;;;;;;;12.30;3.00;;;;;;;19.34;48.89;101951.69;107618;1254;98044;-64
2023/10/02 08:31:50;;;;;;;10.10;2.80;;;;;;;19.50;48.96;101948.94;107615;1254;98370;-64
2023/10/02 08:34:25;;;;;;;15.00;3.30;;;;;;;19.68;48.59;101946.40;107579;1254;110501;-64
2023/10/02 08:37:07;;;;;;;12.00;3.20;;;;;;;19.84;48.41;101944.02;107518;1255;109092;-64
2023/10/02 08:39:38;;;;;;;15.00;3.30;;;;;;;19.94;48.01;101943.06;107500;1254;108212;-64
2023/10/02 08:42:10;;;;;;;14.40;3.40;;;;;;;20.08;47.04;101941.77;107482;1254;98328;-65
2023/10/02 08:44:41;;;;;;;9.90;2.90;;;;;;;20.10;46.29;101943.74;107592;1254;97951;-62
2023/10/02 08:47:11;;;;;;;8.90;3.00;;;;;;;20.12;46.05;101937.29;107540;1254;112315;-63
2023/10/02 08:49:41;;;;;;;17.00;3.00;;;;;;;20.16;45.77;101935.59;107542;1254;108326;-62
2023/10/02 08:52:10;;;;;;;14.90;3.10;;;;;;;20.10;45.82;101942.85;107542;1252;107158;-63
2023/10/02 08:54:44;;;;;;;9.90;2.50;;;;;;;20.06;45.66;101943.98;107496;1254;97883;-63
2023/10/02 08:57:12;;;;;;;15.00;2.90;;;;;;;20.05;45.91;101938.48;107541;1254;97753;-63
2023/10/02 08:59:41;;;;;;;14.80;3.50;;;;;;;20.21;45.94;101936.17;107579;1254;111736;-63
2023/10/02 09:02:17;;;;;;;8.50;3.10;;;;;;;20.41;45.79;101937.30;107569;1256;109888;-63
2023/10/02 09:04:51;;;;;;;13.20;3.20;;;;;;;20.53;45.19;101938.96;107565;1254;108347;-62
2023/10/02 09:07:44;;;;;;;7.20;2.60;;;;;;;20.73;45.13;101938.89;107550;1254;97857;-63
2023/10/02 09:10:28;;;;;;;12.50;2.90;;;;;;;21.00;43.93;101936.05;107604;1254;97857;-63
2023/10/02 09:13:24;;;;;;;10.40;3.30;;;;;;;21.03;43.59;101933.88;107534;1253;111359;-63
2023/10/02 09:15:53;;;;;;;8.80;2.70;;;;;;;20.92;43.25;101930.88;107499;1254;109716;-63
2023/10/02 09:18:34;;;;;;;11.60;2.50;;;;;;;21.68;42.17;101934.39;107488;1254;107898;-63
2023/10/02 09:21:16;;;;;;;14.20;2.70;;;;;;;22.73;40.67;101930.04;107528;1251;97761;-64
2023/10/02 09:23:51;;;;;;;9.20;2.80;;;;;;;23.13;39.37;101931.74;107439;1252;97927;-64
2023/10/02 09:26:23;;;;;;;13.90;2.90;;;;;;;23.51;37.76;101934.73;107520;1254;111939;-62
2023/10/02 09:29:03;;;;;;;14.30;2.80;;;;;;;23.89;38.06;101930.53;107453;1254;109208;-64
2023/10/02 09:31:34;;;;;;;11.00;2.80;;;;;;;24.64;36.29;101927.38;107508;1253;106999;-62
2023/10/02 09:34:16;;;;;;;9.70;2.60;;;;;;;25.10;35.63;101930.77;107553;1254;97853;-62
2023/10/02 09:37:13;;;;;;;10.70;2.60;;;;;;;25.13;35.58;101928.33;107582;1253;97737;-63
2023/10/02 09:39:57;;;;;;;9.50;2.40;;;;;;;25.14;35.57;101923.80;107452;1255;110343;-64
2023/10/02 09:42:30;;;;;;;9.40;2.80;;;;;;;25.85;34.09;101926.89;107633;1254;109586;-62
2023/10/02 09:45:08;;;;;;;19.60;3.20;;;;;;;26.41;33.78;101926.65;107590;1256;108708;-64
2023/10/02 09:47:37;;;;;;;9.10;2.30;;;;;;;26.20;33.75;101926.17;107502;1254;97816;-64
2023/10/02 09:50:29;;;;;;;13.00;3.40;;;;;;;26.59;31.82;101925.86;107552;1254;97859;-62
2023/10/02 09:53:08;;;;;;;15.70;3.40;;;;;;;26.47;31.77;101927.02;107637;1254;111322;-63
2023/10/02 09:56:02;;;;;;;6.80;2.30;;;;;;;25.70;33.00;101929.88;107564;1251;110301;-62
2023/10/02 09:59:12;;;;;;;8.60;2.40;;;;;;;25.30;33.19;101927.23;107594;1254;109743;-64
2023/10/02 10:02:01;;;;;;;10.90;2.80;;;;;;;25.47;33.89;101922.39;107430;1254;97886;-64
2023/10/02 10:07:52;;;;;;;8.70;2.40;;;;;;;27.70;32.09;101910.62;107063;1255;660708;-64
2023/10/02 10:10:49;;;;;;;10.10;2.40;;;;;;;27.97;28.67;101913.86;107487;1256;111533;-63
2023/10/02 10:13:46;;;;;;;14.50;3.40;;;;;;;26.21;30.94;101921.30;107527;1256;107615;-63
2023/10/02 10:16:18;;;;;;;12.20;3.70;;;;;;;24.94;32.93;101915.88;107474;1256;97837;-63
2023/10/02 10:21:58;;;;;;;18.30;3.00;;;;;;;24.41;34.45;101902.00;107492;1254;111017;-63
2023/10/02 10:24:51;;;;;;;15.70;3.40;;;;;;;24.39;34.31;101905.08;107570;1254;109986;-63
2023/10/02 10:27:54;;;;;;;19.20;3.20;;;;;;;23.86;34.80;101912.90;107553;1251;108476;-62
2023/10/02 10:30:26;;;;;;;13.50;3.20;;;;;;;23.08;36.07;101910.02;107573;1254;97831;-64
2023/10/02 10:35:48;;;;;;;13.10;3.20;;;;;;;22.51;37.00;101907.66;107568;1255;112084;-63
2023/10/02 10:41:14;;;;;;;12.10;3.30;;;;;;;24.52;34.37;101890.31;107505;1255;107519;-63
2023/10/02 10:46:32;;;;;;;7.40;2.90;;;;;;;23.87;34.58;101894.65;107614;1254;97945;-62
2023/10/02 10:49:08;;;;;;;5.90;2.20;;;;;;;23.77;33.61;101887.97;107551;1256;110079;-62
2023/10/02 10:51:40;;;;;;;12.10;3.00;;;;;;;24.40;32.87;101878.48;107555;1254;109863;-64
2023/10/02 10:54:30;;;;;;;9.70;2.60;;;;;;;24.75;32.86;101882.55;107480;1254;108301;-62
2023/10/02 10:57:27;;;;;;;12.60;3.00;;;;;;;24.41;32.96;101885.30;107528;1255;97815;-62
2023/10/02 11:00:26;;;;;;;10.20;3.50;;;;;;;24.06;33.33;101884.02;107593;1254;98472;-63
2023/10/02 11:03:08;;;;;;;10.60;2.50;;;;;;;24.50;32.78;101870.03;107614;1256;113021;-62
2023/10/02 11:05:38;;;;;;;7.20;2.50;;;;;;;25.01;32.09;101864.25;107619;1255;110727;-62
2023/10/02 11:08:25;;;;;;;10.60;3.20;;;;;;;24.80;31.18;101861.02;107572;1254;108621;-62
2023/10/02 11:11:06;;;;;;;13.90;3.20;;;;;;;24.31;32.04;101862.09;107588;1254;97829;-62
2023/10/02 11:13:50;;;;;;;7.10;2.80;;;;;;;23.80;32.85;101863.79;107554;1253;97711;-63
2023/10/02 11:16:37;;;;;;;12.60;3.10;;;;;;;23.64;33.11;101868.92;107542;1256;111306;-63
2023/10/02 11:22:20;;;;;;;13.50;2.50;;;;;;;24.81;31.69;101855.31;107550;1254;108302;-63
2023/10/02 11:24:54;;;;;;;10.40;3.10;;;;;;;25.26;31.08;101852.13;107575;1256;98014;-62
2023/10/02 11:27:24;;;;;;;10.90;2.90;;;;;;;25.70;30.39;101851.19;107529;1256;97714;-63
2023/10/02 11:30:02;;;;;;;14.90;3.40;;;;;;;25.64;30.10;101852.64;107585;1254;112106;-63
2023/10/02 11:33:05;;;;;;;14.30;3.20;;;;;;;25.37;29.95;101854.96;107579;1254;109711;-64
2023/10/02 11:35:38;;;;;;;12.30;2.90;;;;;;;24.83;30.46;101856.34;107222;1254;108171;-62
2023/10/02 11:38:09;;;;;;;10.20;3.10;;;;;;;24.56;29.95;101851.99;107554;1256;97823;-62
2023/10/02 11:40:43;;;;;;;7.90;2.90;;;;;;;24.28;30.80;101849.67;107615;1254;98391;-62
2023/10/02 11:43:14;;;;;;;8.90;3.20;;;;;;;24.12;30.98;101851.72;107594;1254;111977;-61
2023/10/02 11:45:46;;;;;;;16.20;2.80;;;;;;;23.89;31.06;101852.16;107514;1254;110098;-61
2023/10/02 11:48:14;;;;;;;16.00;3.20;;;;;;;23.54;31.54;101856.48;107485;1254;107234;-62
2023/10/02 11:50:43;;;;;;;11.60;2.70;;;;;;;23.37;31.69;101855.86;107485;1254;97866;-62
2023/10/02 11:53:11;;;;;;;8.80;2.90;;;;;;;23.54;31.78;101846.93;107581;1256;97918;-62
2023/10/02 11:55:41;;;;;;;12.20;2.80;;;;;;;23.78;31.70;101844.37;107445;1253;112152;-63
2023/10/02 11:58:09;;;;;;;10.10;3.50;;;;;;;23.87;31.19;101845.02;107456;1257;109579;-63
2023/10/02 12:00:38;;;;;;;10.90;3.30;;;;;;;23.76;31.22;101845.83;107436;1254;108413;-64
2023/10/02 12:03:06;;;;;;;11.30;2.90;;;;;;;23.55;31.73;101846.31;107543;1256;97828;-63
2023/10/02 12:05:36;;;;;;;13.50;3.70;;;;;;;23.65;31.97;101843.79;107578;1257;97834;-63
2023/10/02 12:08:06;;;;;;;21.10;3.10;;;;;;;23.52;31.61;101845.86;107485;1256;111700;-63
2023/10/02 12:10:34;;;;;;;15.30;3.30;;;;;;;23.15;31.51;101849.17;107506;1256;109656;-62
2023/10/02 12:13:02;;;;;;;11.00;2.90;;;;;;;22.81;31.81;101856.45;107480;1254;107472;-62
2023/10/02 12:15:32;;;;;;;9.90;3.20;;;;;;;22.66;32.13;101854.64;107558;1253;97847;-62
2023/10/02 12:18:01;;;;;;;7.90;2.80;;;;;;;22.41;32.52;101855.64;107599;1255;97994;-61
2023/10/02 12:20:30;;;;;;;9.50;2.70;;;;;;;22.45;32.97;101851.94;107474;1254;111342;-62
2023/10/02 12:22:59;;;;;;;11.60;2.80;;;;;;;23.09;32.13;101847.46;107618;1256;109198;-62
2023/10/02 12:25:27;;;;;;;16.30;3.40;;;;;;;23.23;32.01;101846.41;107559;1254;108722;-63
2023/10/02 12:27:55;;;;;;;11.30;4.10;;;;;;;23.12;31.47;101846.73;107533;1254;97729;-62
2023/10/02 12:30:23;;;;;;;6.60;3.20;;;;;;;22.85;31.74;101847.59;107527;1254;99689;-63
2023/10/02 12:32:53;;;;;;;9.40;3.20;;;;;;;22.60;31.65;101854.85;107508;1254;111844;-63
2023/10/02 12:35:21;;;;;;;13.20;3.60;;;;;;;22.46;31.86;101852.70;107501;1255;108942;-62